Time;durP1;ratioP1;P1;durP2;ratioP2;P2;SDS_P1;SDS_P2;PMS_P1;PMS_P2;Temp;Humidity;BMP_temperature;BMP_pressure;BME280_temperature;BME280_humidity;BME280_pressure;Samples;Min_cycle;Max_cycle;Signal;HPM_P1;HPM_P2
2024/01/18 00:01:09;;;;;;;8.52;4.70;;;2.30;76.40;;;;;;5038317;28;20029;-67
2024/01/18 00:03:39;;;;;;;6.75;4.28;;;2.30;76.40;;;;;;5044945;28;20086;-67
2024/01/18 00:06:06;;;;;;;6.13;4.13;;;2.20;76.40;;;;;;5036942;28;20103;-67
2024/01/18 00:08:31;;;;;;;11.52;4.53;;;2.20;76.60;;;;;;5013927;28;20099;-67
2024/01/18 00:10:57;;;;;;;5.93;4.20;;;2.20;76.50;;;;;;5037644;28;20476;-67
2024/01/18 00:13:23;;;;;;;6.00;4.15;;;2.10;76.50;;;;;;5036131;28;20490;-67
2024/01/18 00:15:49;;;;;;;6.60;4.05;;;2.10;76.50;;;;;;5032796;28;20041;-67
2024/01/18 00:18:15;;;;;;;8.93;4.60;;;2.10;76.50;;;;;;5034030;28;20030;-67
2024/01/18 00:20:41;;;;;;;7.13;4.32;;;2.10;76.50;;;;;;5036205;28;20037;-67
2024/01/18 00:23:07;;;;;;;5.63;4.10;;;2.10;76.60;;;;;;5038654;28;20026;-67
2024/01/18 00:25:32;;;;;;;8.93;3.78;;;2.10;76.60;;;;;;5035773;28;20136;-67
2024/01/18 00:27:58;;;;;;;6.25;4.32;;;2.10;76.70;;;;;;5039806;28;20029;-67
2024/01/18 00:30:24;;;;;;;12.63;4.53;;;2.10;76.70;;;;;;5032632;28;20091;-67
2024/01/18 00:32:49;;;;;;;7.30;4.55;;;2.10;76.70;;;;;;5030460;28;20033;-67
2024/01/18 00:35:15;;;;;;;9.57;4.80;;;2.10;76.70;;;;;;5035877;28;20029;-66
2024/01/18 00:37:41;;;;;;;6.85;4.72;;;2.00;76.70;;;;;;5040411;28;20107;-67
2024/01/18 00:40:07;;;;;;;9.13;5.43;;;2.00;76.70;;;;;;5032734;28;20076;-67
2024/01/18 00:42:33;;;;;;;9.65;4.70;;;2.00;76.80;;;;;;5032265;28;20103;-66
2024/01/18 00:44:59;;;;;;;7.75;4.72;;;2.10;76.80;;;;;;5036711;28;20034;-66
2024/01/18 00:47:25;;;;;;;8.80;4.97;;;2.00;76.70;;;;;;5034679;28;20037;-67
2024/01/18 00:49:51;;;;;;;6.32;3.95;;;2.00;76.70;;;;;;5039197;28;20029;-67
2024/01/18 00:52:16;;;;;;;5.78;4.45;;;2.00;76.70;;;;;;5037319;28;20092;-67
2024/01/18 00:54:42;;;;;;;11.90;5.25;;;2.00;76.80;;;;;;5043405;28;20568;-67
2024/01/18 00:57:08;;;;;;;9.23;4.95;;;2.00;76.80;;;;;;5044079;28;20033;-67
2024/01/18 00:59:33;;;;;;;10.27;4.78;;;2.00;76.90;;;;;;5039162;28;20037;-68
2024/01/18 01:01:59;;;;;;;7.57;4.47;;;2.00;77.00;;;;;;5042575;28;20060;-68
2024/01/18 01:04:25;;;;;;;6.85;4.95;;;1.90;77.00;;;;;;5039140;28;20033;-68
2024/01/18 01:06:50;;;;;;;8.05;4.72;;;1.90;77.20;;;;;;5035417;28;20033;-68
2024/01/18 01:09:16;;;;;;;8.93;5.15;;;1.90;77.20;;;;;;5038311;28;20042;-64
2024/01/18 01:11:42;;;;;;;9.02;5.88;;;1.90;77.20;;;;;;5035583;28;20407;-68
2024/01/18 01:14:08;;;;;;;5.82;4.50;;;1.90;77.30;;;;;;5041388;28;20029;-68
2024/01/18 01:16:33;;;;;;;7.88;5.20;;;1.90;77.30;;;;;;5051756;28;20465;-64
2024/01/18 01:19:00;;;;;;;9.95;5.22;;;1.90;77.40;;;;;;5037658;28;20049;-64
2024/01/18 01:21:26;;;;;;;8.10;4.72;;;1.90;77.40;;;;;;5038622;28;20032;-68
2024/01/18 01:23:51;;;;;;;8.57;5.40;;;1.90;77.50;;;;;;5030793;28;20322;-64
2024/01/18 01:26:17;;;;;;;6.30;4.45;;;1.90;77.50;;;;;;5038774;28;20075;-64
2024/01/18 01:28:43;;;;;;;9.35;5.32;;;1.90;77.50;;;;;;5041203;28;20108;-64
2024/01/18 01:31:09;;;;;;;7.93;5.25;;;1.90;77.60;;;;;;5033421;28;20477;-64
2024/01/18 01:33:36;;;;;;;10.82;5.00;;;1.90;77.70;;;;;;5069028;28;20106;-64
2024/01/18 01:36:02;;;;;;;11.52;5.18;;;1.90;77.80;;;;;;5037840;28;20033;-64
2024/01/18 01:38:28;;;;;;;9.25;5.05;;;1.90;77.80;;;;;;5039351;28;20117;-68
2024/01/18 01:40:54;;;;;;;6.80;4.40;;;1.90;77.80;;;;;;5036639;28;20455;-68
2024/01/18 01:43:20;;;;;;;12.55;5.28;;;1.90;77.90;;;;;;5031512;28;20041;-68
2024/01/18 01:45:46;;;;;;;9.82;5.10;;;1.80;78.00;;;;;;5040773;28;20079;-68
2024/01/18 01:48:12;;;;;;;11.43;5.65;;;1.80;78.10;;;;;;5033172;28;20033;-66
2024/01/18 01:50:39;;;;;;;9.25;5.53;;;1.80;78.20;;;;;;5036309;28;20040;-66
2024/01/18 01:53:06;;;;;;;10.32;5.72;;;1.70;78.90;;;;;;5036292;28;20116;-66
2024/01/18 01:55:32;;;;;;;11.30;6.15;;;1.70;78.30;;;;;;5040333;28;20086;-66
2024/01/18 01:57:59;;;;;;;6.78;5.03;;;1.70;78.40;;;;;;5030550;28;20104;-66
2024/01/18 02:00:25;;;;;;;8.63;5.00;;;1.70;78.50;;;;;;5023391;28;20770;-67
2024/01/18 02:02:52;;;;;;;6.45;4.97;;;1.70;78.60;;;;;;5029207;28;20018;-67
2024/01/18 02:05:18;;;;;;;7.22;5.20;;;1.70;78.60;;;;;;5034310;28;20461;-66
2024/01/18 02:07:45;;;;;;;9.98;5.55;;;1.70;79.10;;;;;;5031972;28;20358;-66
2024/01/18 02:10:11;;;;;;;8.50;6.07;;;1.70;78.50;;;;;;5036848;28;20021;-67
2024/01/18 02:12:38;;;;;;;9.75;4.97;;;1.70;78.60;;;;;;5033924;28;20408;-66
2024/01/18 02:15:05;;;;;;;14.90;5.53;;;1.70;78.50;;;;;;5035611;28;20045;-67
2024/01/18 02:17:31;;;;;;;7.68;5.40;;;1.70;78.60;;;;;;5038398;28;20041;-67
2024/01/18 02:19:56;;;;;;;7.35;5.15;;;1.70;78.60;;;;;;5035255;28;20025;-66
2024/01/18 02:22:27;;;;;;;10.23;5.47;;;1.60;78.50;;;;;;5036471;28;20091;-66
2024/01/18 02:25:24;;;;;;;10.13;5.82;;;1.60;78.50;;;;;;5033385;28;20025;-67
2024/01/18 02:27:57;;;;;;;5.55;4.35;;;1.60;78.50;;;;;;5036690;28;20450;-66
2024/01/18 02:30:23;;;;;;;7.35;5.65;;;1.60;78.60;;;;;;5042354;28;20022;-66
2024/01/18 02:32:49;;;;;;;10.02;5.10;;;1.60;78.60;;;;;;5045156;28;20029;-67
2024/01/18 02:35:15;;;;;;;9.50;5.25;;;1.50;78.60;;;;;;5043325;28;20031;-66
2024/01/18 02:37:41;;;;;;;11.57;4.85;;;1.50;78.60;;;;;;5038505;28;20026;-67
2024/01/18 02:40:08;;;;;;;9.82;5.95;;;1.50;78.70;;;;;;5031635;28;20025;-67
2024/01/18 02:42:34;;;;;;;6.20;3.95;;;1.50;78.70;;;;;;5037302;28;20125;-67
2024/01/18 02:45:02;;;;;;;9.10;4.30;;;1.50;78.80;;;;;;5038987;28;20124;-63
2024/01/18 02:47:28;;;;;;;7.57;4.38;;;1.40;78.70;;;;;;5025347;28;20034;-67
2024/01/18 02:49:58;;;;;;;7.63;4.80;;;1.40;78.80;;;;;;5029461;28;20033;-63
2024/01/18 02:52:24;;;;;;;8.07;4.63;;;1.40;78.70;;;;;;5029078;28;20519;-63
2024/01/18 02:54:50;;;;;;;6.03;4.07;;;1.40;78.80;;;;;;5037742;28;20108;-63
2024/01/18 02:57:15;;;;;;;6.10;3.78;;;1.40;78.80;;;;;;5027739;28;20432;-63
2024/01/18 02:59:41;;;;;;;4.85;3.47;;;1.40;78.80;;;;;;5032194;28;20051;-63
2024/01/18 03:02:07;;;;;;;6.20;4.20;;;1.30;78.70;;;;;;5034233;28;20075;-63
2024/01/18 03:04:33;;;;;;;10.18;3.92;;;1.30;78.80;;;;;;5028732;28;20033;-63
2024/01/18 03:06:58;;;;;;;6.72;4.55;;;1.30;78.80;;;;;;5035805;28;20067;-67
2024/01/18 03:09:26;;;;;;;9.73;4.45;;;1.30;78.80;;;;;;5033097;28;20033;-68
2024/01/18 03:11:51;;;;;;;6.30;4.18;;;1.20;78.80;;;;;;5039063;28;20083;-66
2024/01/18 03:14:17;;;;;;;4.18;3.38;;;1.20;78.80;;;;;;5032515;28;20033;-66
2024/01/18 03:16:43;;;;;;;6.60;4.32;;;1.20;78.80;;;;;;5031547;28;20036;-63
2024/01/18 03:19:12;;;;;;;4.13;3.13;;;1.20;78.70;;;;;;5029663;28;20065;-66
2024/01/18 03:21:38;;;;;;;6.13;4.57;;;1.20;78.70;;;;;;5037791;28;20060;-68
2024/01/18 03:24:05;;;;;;;6.63;4.70;;;1.10;78.60;;;;;;5031890;28;20032;-67
2024/01/18 03:26:31;;;;;;;12.65;4.38;;;1.10;78.70;;;;;;5033813;28;20042;-63
2024/01/18 03:28:57;;;;;;;5.32;3.55;;;1.00;78.70;;;;;;5039663;28;20043;-67
2024/01/18 03:31:23;;;;;;;6.85;4.32;;;1.00;78.70;;;;;;5043281;28;20021;-67
2024/01/18 03:33:48;;;;;;;5.28;3.78;;;1.00;78.70;;;;;;5035060;28;20025;-63
2024/01/18 03:36:14;;;;;;;5.90;3.83;;;0.90;78.60;;;;;;5036506;28;20036;-63
2024/01/18 03:38:40;;;;;;;3.00;2.70;;;0.90;79.30;;;;;;5040783;28;20030;-64
2024/01/18 03:41:06;;;;;;;6.50;4.05;;;0.90;78.70;;;;;;5039033;28;20033;-63
2024/01/18 03:43:31;;;;;;;11.77;4.85;;;0.80;78.70;;;;;;5040580;28;20048;-63
2024/01/18 03:45:57;;;;;;;10.52;4.68;;;0.80;78.70;;;;;;5045407;28;20059;-67
2024/01/18 03:48:23;;;;;;;7.57;4.38;;;0.70;78.70;;;;;;5038714;28;20477;-67
2024/01/18 03:50:48;;;;;;;6.68;4.22;;;0.70;78.70;;;;;;5042763;28;20078;-67
2024/01/18 03:53:14;;;;;;;4.72;3.17;;;0.70;78.60;;;;;;5039020;28;20036;-67
2024/01/18 03:55:41;;;;;;;3.22;2.45;;;0.70;78.70;;;;;;5038417;28;20025;-64
2024/01/18 03:58:07;;;;;;;7.57;3.38;;;0.70;78.70;;;;;;5037969;28;20297;-67
2024/01/18 04:00:32;;;;;;;5.25;3.47;;;0.60;78.60;;;;;;5044031;28;20028;-63
2024/01/18 04:02:58;;;;;;;3.70;2.72;;;0.60;78.50;;;;;;5039290;28;20049;-63
2024/01/18 04:05:24;;;;;;;6.22;3.55;;;0.60;78.50;;;;;;5039210;28;20029;-64
2024/01/18 04:07:50;;;;;;;4.95;2.97;;;0.60;78.50;;;;;;5033319;28;20021;-63
2024/01/18 04:10:15;;;;;;;4.57;2.15;;;0.60;78.50;;;;;;5031943;28;20025;-67
2024/01/18 04:12:42;;;;;;;3.20;2.33;;;0.60;78.50;;;;;;5040187;28;20548;-67
2024/01/18 04:15:09;;;;;;;2.45;1.75;;;0.60;78.50;;;;;;5040044;28;20021;-67
2024/01/18 04:17:34;;;;;;;3.15;2.20;;;0.60;78.40;;;;;;5042615;28;20556;-63
2024/01/18 04:20:00;;;;;;;6.03;2.70;;;0.60;78.30;;;;;;5043837;28;20029;-64
2024/01/18 04:22:26;;;;;;;6.38;3.42;;;0.60;78.20;;;;;;5034346;28;20021;-64
2024/01/18 04:24:53;;;;;;;5.25;2.10;;;0.60;78.30;;;;;;5047451;28;20078;-64
2024/01/18 04:27:18;;;;;;;2.95;2.03;;;0.60;78.20;;;;;;5034532;28;20048;-63
2024/01/18 04:29:44;;;;;;;3.42;2.28;;;0.60;78.40;;;;;;5035061;28;20076;-63
2024/01/18 04:32:10;;;;;;;7.75;3.30;;;0.60;78.50;;;;;;5033004;28;20104;-67
2024/01/18 04:34:37;;;;;;;2.78;1.75;;;0.60;78.50;;;;;;5033841;28;20065;-67
2024/01/18 04:37:03;;;;;;;3.00;2.10;;;0.50;78.40;;;;;;5032784;28;20033;-67
2024/01/18 04:39:29;;;;;;;4.45;3.20;;;0.50;78.40;;;;;;5038251;28;20031;-67
2024/01/18 04:41:55;;;;;;;3.38;2.75;;;0.50;78.40;;;;;;5033373;28;20029;-67
2024/01/18 04:44:21;;;;;;;4.75;2.40;;;0.50;78.40;;;;;;5031411;28;20072;-67
2024/01/18 04:46:47;;;;;;;4.90;3.05;;;0.40;78.30;;;;;;5032070;28;20057;-67
2024/01/18 04:49:13;;;;;;;6.38;3.17;;;0.40;78.20;;;;;;5046313;28;20043;-64
2024/01/18 04:51:39;;;;;;;6.70;3.33;;;0.30;78.30;;;;;;5045358;28;20041;-67
2024/01/18 04:54:05;;;;;;;5.95;3.35;;;0.30;78.30;;;;;;5041076;28;20037;-67
2024/01/18 04:56:31;;;;;;;4.75;2.95;;;0.20;78.30;;;;;;5041316;28;20043;-63
2024/01/18 04:58:57;;;;;;;6.68;2.80;;;0.20;78.40;;;;;;5034255;28;20037;-63
2024/01/18 05:01:22;;;;;;;5.78;2.78;;;0.20;78.40;;;;;;5035725;28;20038;-64
2024/01/18 05:03:48;;;;;;;4.95;3.10;;;0.20;78.40;;;;;;5035978;28;20091;-63
2024/01/18 05:06:14;;;;;;;3.50;2.08;;;0.10;78.50;;;;;;5032135;28;20037;-63
2024/01/18 05:08:40;;;;;;;4.65;2.65;;;0.10;78.50;;;;;;5041290;28;20474;-63
2024/01/18 05:11:06;;;;;;;4.55;2.28;;;0.00;78.50;;;;;;5039640;28;20081;-63
2024/01/18 05:13:32;;;;;;;3.15;2.17;;;0.10;78.60;;;;;;5041627;28;20104;-63
2024/01/18 05:15:59;;;;;;;5.95;2.97;;;0.00;78.60;;;;;;5034089;28;20121;-63
2024/01/18 05:18:25;;;;;;;4.38;2.67;;;0.00;78.70;;;;;;5034876;28;20045;-63
2024/01/18 05:20:51;;;;;;;4.82;2.67;;;0.00;78.60;;;;;;5036349;28;20108;-63
2024/01/18 05:23:16;;;;;;;3.72;1.98;;;0.00;78.70;;;;;;5038306;28;20076;-64
2024/01/18 05:25:42;;;;;;;3.53;2.38;;;0.00;78.70;;;;;;5035028;28;20500;-63
2024/01/18 05:28:08;;;;;;;4.90;2.47;;;-0.10;78.60;;;;;;5038936;28;20029;-63
2024/01/18 05:30:33;;;;;;;2.35;1.80;;;-0.10;78.70;;;;;;5037917;28;20484;-63
2024/01/18 05:32:59;;;;;;;6.28;2.72;;;-0.20;79.40;;;;;;5027279;28;20059;-63
2024/01/18 05:35:25;;;;;;;3.85;2.67;;;-0.20;78.80;;;;;;5030100;28;20033;-67
2024/01/18 05:37:50;;;;;;;5.85;2.03;;;-0.10;79.00;;;;;;5038823;28;20025;-67
2024/01/18 05:40:16;;;;;;;3.03;2.30;;;-0.20;78.90;;;;;;5034444;28;20118;-67
2024/01/18 05:42:43;;;;;;;2.67;1.83;;;-0.10;79.00;;;;;;5034497;28;20388;-68
2024/01/18 05:45:08;;;;;;;2.33;1.25;;;-0.10;79.00;;;;;;5029945;28;20476;-67
2024/01/18 05:47:34;;;;;;;8.43;3.10;;;-0.20;79.00;;;;;;5035125;28;20100;-67
2024/01/18 05:50:00;;;;;;;3.28;2.28;;;-0.10;79.10;;;;;;5034260;28;20033;-63
2024/01/18 05:52:27;;;;;;;2.72;2.17;;;-0.10;79.10;;;;;;5033703;28;20520;-63
2024/01/18 05:54:53;;;;;;;2.70;2.38;;;-0.10;79.20;;;;;;5037436;28;20038;-63
2024/01/18 05:57:19;;;;;;;3.65;2.30;;;-0.10;79.20;;;;;;5033977;28;20502;-63
2024/01/18 05:59:44;;;;;;;3.20;2.22;;;-0.20;79.20;;;;;;5035931;28;20120;-63
2024/01/18 06:02:10;;;;;;;5.63;2.25;;;-0.20;79.20;;;;;;5033081;28;20179;-67
2024/01/18 06:04:36;;;;;;;5.38;2.63;;;-0.20;79.20;;;;;;5035456;28;20076;-63
2024/01/18 06:07:01;;;;;;;3.70;2.53;;;-0.20;79.30;;;;;;5030293;28;20332;-63
2024/01/18 06:09:29;;;;;;;5.47;2.22;;;-0.20;79.40;;;;;;5031492;28;20041;-63
2024/01/18 06:11:54;;;;;;;4.20;2.72;;;-0.20;79.50;;;;;;5032408;28;20041;-63
2024/01/18 06:14:20;;;;;;;3.45;2.42;;;-0.20;79.50;;;;;;5036451;28;20036;-63
2024/01/18 06:16:46;;;;;;;6.75;3.88;;;-0.20;79.60;;;;;;5042591;28;20037;-63
2024/01/18 06:19:12;;;;;;;5.03;3.00;;;-0.20;79.60;;;;;;5038339;28;20052;-63
2024/01/18 06:21:38;;;;;;;5.00;2.78;;;-0.20;79.60;;;;;;5035735;28;20029;-63
2024/01/18 06:24:03;;;;;;;4.75;2.80;;;-0.20;79.60;;;;;;5032119;28;20025;-67
2024/01/18 06:26:29;;;;;;;6.40;3.13;;;-0.20;79.70;;;;;;5041316;28;20036;-67
2024/01/18 06:28:55;;;;;;;5.47;2.20;;;-0.10;79.70;;;;;;5035934;28;20024;-67
2024/01/18 06:31:26;;;;;;;7.05;3.05;;;-0.20;79.70;;;;;;5031266;28;20105;-67
2024/01/18 06:33:56;;;;;;;4.68;3.15;;;-0.20;79.60;;;;;;5028958;28;20124;-67
2024/01/18 06:36:22;;;;;;;5.53;3.10;;;-0.20;79.60;;;;;;5039596;28;20119;-67
2024/01/18 06:38:49;;;;;;;7.22;2.92;;;-0.20;79.60;;;;;;5030311;28;20032;-67
2024/01/18 06:41:15;;;;;;;4.78;2.85;;;-0.20;79.50;;;;;;5040795;28;20017;-63
2024/01/18 06:43:41;;;;;;;5.15;2.97;;;-0.30;79.40;;;;;;5033672;28;20480;-67
2024/01/18 06:46:15;;;;;;;8.10;2.90;;;-0.30;79.50;;;;;;5031634;28;20061;-67
2024/01/18 06:48:42;;;;;;;6.40;3.03;;;-0.30;79.50;;;;;;5037075;28;20033;-67
2024/01/18 06:51:08;;;;;;;3.40;2.53;;;-0.30;79.60;;;;;;5036750;28;20397;-67
2024/01/18 06:53:34;;;;;;;5.93;3.22;;;-0.30;79.70;;;;;;5060038;28;20045;-67
2024/01/18 06:56:00;;;;;;;5.85;2.70;;;-0.20;79.70;;;;;;5031877;28;20388;-67
2024/01/18 06:58:26;;;;;;;6.15;3.20;;;-0.20;79.60;;;;;;5029310;28;20746;-67
2024/01/18 07:00:52;;;;;;;8.20;3.33;;;-0.30;79.60;;;;;;5028904;28;20033;-67
2024/01/18 07:03:18;;;;;;;4.18;2.92;;;-0.30;79.70;;;;;;5032369;28;20032;-67
2024/01/18 07:05:44;;;;;;;5.38;2.88;;;-0.20;79.80;;;;;;5041812;28;20033;-67
2024/01/18 07:08:10;;;;;;;4.30;2.45;;;-0.30;79.70;;;;;;5042944;28;20031;-67
2024/01/18 07:10:36;;;;;;;8.40;3.30;;;-0.30;79.70;;;;;;5034353;28;20044;-67
2024/01/18 07:13:02;;;;;;;4.70;3.42;;;-0.30;79.70;;;;;;5036504;28;20026;-63
2024/01/18 07:15:28;;;;;;;6.00;3.40;;;-0.30;79.70;;;;;;5033522;28;20112;-63
2024/01/18 07:17:53;;;;;;;5.65;3.42;;;-0.40;79.60;;;;;;5031673;28;20121;-63
2024/01/18 07:20:19;;;;;;;7.47;3.45;;;-0.40;79.60;;;;;;5034316;28;20124;-63
2024/01/18 07:22:45;;;;;;;9.18;3.75;;;-0.40;79.60;;;;;;5033639;28;20651;-63
2024/01/18 07:25:12;;;;;;;3.90;2.33;;;-0.30;79.50;;;;;;5032084;28;20057;-63
2024/01/18 07:27:38;;;;;;;7.00;3.22;;;-0.40;79.40;;;;;;5022645;28;20030;-63
2024/01/18 07:30:05;;;;;;;9.88;3.55;;;-0.40;79.40;;;;;;5040299;28;20052;-62
2024/01/18 07:32:33;;;;;;;5.30;3.35;;;-0.40;79.40;;;;;;5031680;28;20507;-67
2024/01/18 07:35:00;;;;;;;4.75;2.70;;;-0.50;79.50;;;;;;5037929;28;20384;-62
2024/01/18 07:37:26;;;;;;;6.03;3.20;;;-0.40;79.50;;;;;;5033859;28;20033;-62
2024/01/18 07:39:51;;;;;;;3.92;2.70;;;-0.50;79.40;;;;;;5035592;28;20424;-67
2024/01/18 07:42:17;;;;;;;4.05;3.28;;;-0.50;79.50;;;;;;5031482;28;20112;-66
2024/01/18 07:44:46;;;;;;;4.65;2.65;;;-0.50;79.50;;;;;;5032882;28;20466;-67
2024/01/18 07:47:12;;;;;;;4.47;2.45;;;-0.50;79.50;;;;;;5026274;28;20041;-67
2024/01/18 07:49:43;;;;;;;3.28;2.78;;;-0.50;79.50;;;;;;5035928;28;20045;-67
2024/01/18 07:52:12;;;;;;;5.43;2.53;;;-0.50;79.50;;;;;;5065019;28;20120;-62
2024/01/18 07:54:37;;;;;;;3.38;2.42;;;-0.50;79.40;;;;;;5033259;28;20644;-63
2024/01/18 07:57:04;;;;;;;4.97;3.17;;;-0.50;79.40;;;;;;5034921;28;20033;-62
2024/01/18 07:59:30;;;;;;;6.28;2.58;;;-0.50;79.40;;;;;;5017560;28;20515;-67
2024/01/18 08:01:56;;;;;;;4.65;2.15;;;-0.50;79.40;;;;;;5040273;28;20124;-63
2024/01/18 08:04:22;;;;;;;3.85;2.33;;;-0.40;79.40;;;;;;5040784;28;20063;-67
2024/01/18 08:06:47;;;;;;;4.28;3.22;;;-0.40;79.40;;;;;;5037238;28;20029;-67
2024/01/18 08:09:13;;;;;;;6.47;2.70;;;-0.40;79.30;;;;;;5035776;28;20385;-67
2024/01/18 08:11:39;;;;;;;4.75;2.88;;;-0.40;79.30;;;;;;5038893;28;20090;-67
2024/01/18 08:14:04;;;;;;;4.10;2.17;;;-0.40;79.30;;;;;;5039220;28;20045;-67
2024/01/18 08:16:31;;;;;;;4.90;2.60;;;-0.40;79.30;;;;;;5038705;28;20034;-62
2024/01/18 08:18:57;;;;;;;4.38;2.13;;;-0.40;79.30;;;;;;5038371;28;20127;-63
2024/01/18 08:21:23;;;;;;;2.65;1.83;;;-0.40;79.20;;;;;;5038787;28;20392;-63
2024/01/18 08:23:48;;;;;;;3.67;1.75;;;-0.40;79.10;;;;;;5035634;28;20037;-67
2024/01/18 08:26:15;;;;;;;3.00;2.13;;;-0.40;79.10;;;;;;5037325;28;20516;-67
2024/01/18 08:28:40;;;;;;;3.08;2.15;;;-0.40;79.10;;;;;;5030527;28;20033;-63
2024/01/18 08:31:06;;;;;;;3.03;2.00;;;-0.40;79.20;;;;;;5034692;28;20040;-63
2024/01/18 08:33:35;;;;;;;3.22;2.25;;;-0.30;79.30;;;;;;5038209;28;20381;-63
2024/01/18 08:36:00;;;;;;;5.25;2.10;;;-0.30;79.30;;;;;;5034110;28;20033;-63
2024/01/18 08:38:27;;;;;;;3.95;1.80;;;-0.30;79.30;;;;;;5028371;28;20026;-67
2024/01/18 08:40:52;;;;;;;4.05;2.30;;;-0.20;79.50;;;;;;5040415;28;20055;-63
2024/01/18 08:43:22;;;;;;;3.22;2.00;;;-0.20;79.60;;;;;;5029447;28;20033;-63
2024/01/18 08:45:48;;;;;;;3.83;2.42;;;-0.10;79.80;;;;;;5034401;28;20029;-63
2024/01/18 08:48:14;;;;;;;5.80;2.13;;;-0.10;80.00;;;;;;5039675;28;20468;-63
2024/01/18 08:50:40;;;;;;;2.60;1.55;;;0.00;80.30;;;;;;5040505;28;20037;-63
2024/01/18 08:53:06;;;;;;;1.90;1.55;;;0.00;80.20;;;;;;5033601;28;20490;-67
2024/01/18 08:55:32;;;;;;;2.60;1.45;;;0.10;80.20;;;;;;5034805;28;20032;-63
2024/01/18 08:57:57;;;;;;;2.70;2.03;;;0.20;80.10;;;;;;5033170;28;20029;-63
2024/01/18 09:00:23;;;;;;;2.33;1.48;;;0.30;80.10;;;;;;5031030;28;20025;-62
2024/01/18 09:02:49;;;;;;;3.08;1.55;;;0.40;80.00;;;;;;5030335;28;20030;-62
2024/01/18 09:05:15;;;;;;;2.85;1.55;;;0.50;80.00;;;;;;5030560;28;20432;-66
2024/01/18 09:07:41;;;;;;;2.63;1.92;;;0.60;79.90;;;;;;5037534;28;20029;-66
2024/01/18 09:10:08;;;;;;;4.15;1.88;;;0.60;79.90;;;;;;5034235;28;20025;-66
2024/01/18 09:12:34;;;;;;;2.38;1.20;;;0.70;79.90;;;;;;5030071;28;20040;-65
2024/01/18 09:15:00;;;;;;;1.65;1.13;;;0.80;79.80;;;;;;5029698;28;20022;-66
2024/01/18 09:17:26;;;;;;;3.05;1.33;;;0.90;79.90;;;;;;5032411;28;20048;-66
2024/01/18 09:19:52;;;;;;;1.30;1.20;;;1.00;79.80;;;;;;5039479;28;20045;-66
2024/01/18 09:22:18;;;;;;;2.45;1.70;;;1.00;79.70;;;;;;5032524;28;20033;-66
2024/01/18 09:24:44;;;;;;;2.05;0.90;;;1.10;79.60;;;;;;5039662;28;20365;-66
2024/01/18 09:27:11;;;;;;;2.22;1.45;;;1.20;79.60;;;;;;5031642;28;20053;-65
2024/01/18 09:29:37;;;;;;;2.05;1.10;;;1.30;79.40;;;;;;5034055;28;20037;-66
2024/01/18 09:32:03;;;;;;;1.30;0.90;;;1.40;79.50;;;;;;5030753;28;20092;-65
2024/01/18 09:34:29;;;;;;;1.25;0.80;;;1.40;80.00;;;;;;5031556;28;20447;-64
2024/01/18 09:36:55;;;;;;;2.45;0.95;;;1.50;79.30;;;;;;5034242;28;20021;-64
2024/01/18 09:39:21;;;;;;;2.13;0.82;;;1.60;79.20;;;;;;5037503;28;20104;-66
2024/01/18 09:41:51;;;;;;;0.70;0.50;;;1.60;79.20;;;;;;5026903;28;20018;-66
2024/01/18 09:44:26;;;;;;;1.25;0.85;;;1.80;79.10;;;;;;5032162;28;20526;-66
2024/01/18 09:46:53;;;;;;;1.67;0.88;;;1.80;79.00;;;;;;5026170;28;20013;-66
2024/01/18 09:49:19;;;;;;;1.08;0.98;;;1.90;79.00;;;;;;5042160;28;20043;-66
2024/01/18 09:51:46;;;;;;;1.92;0.93;;;2.00;78.90;;;;;;5031362;28;20506;-66
2024/01/18 09:54:12;;;;;;;3.58;1.13;;;2.10;78.90;;;;;;5033102;28;20112;-66
2024/01/18 09:56:45;;;;;;;1.40;0.73;;;2.20;78.90;;;;;;5029479;28;20476;-66
2024/01/18 09:59:20;;;;;;;1.05;0.80;;;2.30;78.90;;;;;;5030442;28;20035;-66
2024/01/18 10:01:46;;;;;;;0.80;0.65;;;2.40;78.70;;;;;;5030961;28;20302;-66
2024/01/18 10:04:12;;;;;;;2.53;1.00;;;2.40;78.60;;;;;;5028926;28;20026;-66
2024/01/18 10:06:38;;;;;;;0.85;0.60;;;2.60;78.60;;;;;;5028851;28;20033;-66
2024/01/18 10:09:10;;;;;;;1.20;0.70;;;2.70;78.50;;;;;;5024395;28;20026;-66
2024/01/18 10:11:40;;;;;;;2.05;0.60;;;2.80;78.30;;;;;;5030189;28;20566;-64
2024/01/18 10:14:07;;;;;;;0.93;0.65;;;3.00;78.10;;;;;;5030787;28;20024;-64
2024/01/18 10:16:37;;;;;;;0.77;0.68;;;3.20;77.80;;;;;;5030754;28;20469;-67
2024/01/18 10:19:14;;;;;;;2.58;0.88;;;3.40;78.10;;;;;;5030814;28;20492;-66
2024/01/18 10:21:41;;;;;;;0.60;0.57;;;3.50;77.40;;;;;;5032039;28;20480;-66
2024/01/18 10:24:11;;;;;;;1.15;0.95;;;3.60;77.10;;;;;;5032333;28;20495;-66
2024/01/18 10:26:37;;;;;;;4.05;1.05;;;3.60;76.90;;;;;;5037698;28;20578;-66
2024/01/18 10:29:04;;;;;;;2.03;1.10;;;3.70;76.90;;;;;;5038960;28;20067;-66
2024/01/18 10:31:31;;;;;;;3.65;0.98;;;3.70;76.90;;;;;;5030827;28;20056;-66
2024/01/18 10:33:56;;;;;;;1.13;1.02;;;3.90;77.00;;;;;;5030616;28;20043;-66
2024/01/18 10:36:22;;;;;;;2.15;1.17;;;4.10;77.50;;;;;;5037017;28;20032;-67
2024/01/18 10:38:49;;;;;;;3.80;1.40;;;5.00;77.00;;;;;;5036265;28;20022;-67
2024/01/18 10:41:21;;;;;;;2.22;1.50;;;7.00;73.60;;;;;;5044683;28;20028;-67
2024/01/18 10:43:48;;;;;;;3.30;1.38;;;9.40;68.20;;;;;;5037024;28;20448;-68
2024/01/18 10:46:14;;;;;;;4.40;2.00;;;11.50;63.20;;;;;;5030576;28;20120;-68
2024/01/18 10:48:47;;;;;;;3.72;1.15;;;13.30;59.30;;;;;;5035538;28;20040;-68
2024/01/18 10:51:12;;;;;;;2.80;1.48;;;14.80;56.20;;;;;;5030082;28;20400;-68
2024/01/18 10:53:38;;;;;;;4.53;1.95;;;15.90;53.80;;;;;;5040672;28;20036;-68
2024/01/18 10:56:04;;;;;;;3.58;1.13;;;16.80;51.50;;;;;;5034809;28;20060;-68
2024/01/18 10:58:31;;;;;;;2.17;1.27;;;17.50;49.30;;;;;;5035189;28;20036;-68
2024/01/18 11:00:59;;;;;;;5.85;1.88;;;18.20;48.10;;;;;;5028667;28;20112;-68
2024/01/18 11:03:25;;;;;;;2.25;1.60;;;18.70;46.60;;;;;;5032225;28;20349;-68
2024/01/18 11:05:51;;;;;;;2.45;1.20;;;19.00;45.40;;;;;;5028356;28;20030;-68
2024/01/18 11:08:17;;;;;;;1.73;1.10;;;18.90;44.50;;;;;;5032990;28;20036;-68
2024/01/18 11:10:45;;;;;;;1.50;0.90;;;18.50;45.10;;;;;;5019880;28;20040;-67
2024/01/18 11:13:11;;;;;;;2.28;1.13;;;18.40;44.30;;;;;;5029172;28;20025;-66
2024/01/18 11:15:39;;;;;;;2.22;1.17;;;18.80;43.70;;;;;;5027652;28;20021;-68
2024/01/18 11:18:12;;;;;;;2.03;1.33;;;19.40;42.40;;;;;;5026319;28;20041;-68
2024/01/18 11:21:00;;;;;;;1.40;1.27;;;20.00;41.80;;;;;;5028953;28;20071;-68
2024/01/18 11:23:27;;;;;;;2.03;1.02;;;20.50;40.20;;;;;;5026563;28;20013;-68
2024/01/18 11:25:53;;;;;;;1.38;1.02;;;20.90;39.20;;;;;;5026059;28;20456;-67
2024/01/18 11:28:26;;;;;;;1.27;1.00;;;21.40;38.60;;;;;;5030396;28;20022;-67
2024/01/18 11:30:52;;;;;;;0.93;0.77;;;22.00;37.90;;;;;;5027609;28;20120;-68
2024/01/18 11:33:19;;;;;;;1.38;1.00;;;22.40;37.20;;;;;;5071328;28;20044;-69
2024/01/18 11:35:45;;;;;;;1.25;1.10;;;22.80;36.10;;;;;;5033564;28;20037;-69
2024/01/18 11:38:23;;;;;;;4.25;1.05;;;22.70;34.60;;;;;;5032836;28;20025;-69
2024/01/18 11:40:57;;;;;;;2.25;0.98;;;22.30;34.80;;;;;;5026832;28;20116;-68
2024/01/18 11:43:52;;;;;;;4.18;1.35;;;22.30;35.00;;;;;;5032686;28;20022;-69
2024/01/18 11:46:32;;;;;;;1.65;1.10;;;22.60;34.20;;;;;;5029875;28;20083;-66
2024/01/18 11:48:58;;;;;;;1.10;0.73;;;23.10;33.50;;;;;;5031588;28;20085;-67
2024/01/18 11:51:24;;;;;;;1.95;0.90;;;23.20;33.60;;;;;;5034309;28;20104;-66
2024/01/18 11:53:50;;;;;;;2.03;0.93;;;23.50;33.30;;;;;;5032902;28;20048;-68
2024/01/18 11:56:18;;;;;;;2.42;1.05;;;23.70;32.90;;;;;;5029941;28;20277;-69
2024/01/18 11:58:44;;;;;;;1.95;1.15;;;24.00;32.30;;;;;;5026740;28;20412;-67
2024/01/18 12:01:13;;;;;;;0.63;0.63;;;24.10;32.10;;;;;;5034440;28;20025;-67
2024/01/18 12:03:40;;;;;;;1.27;0.80;;;24.30;31.50;;;;;;5034137;28;20083;-66
2024/01/18 12:06:06;;;;;;;1.35;0.90;;;24.00;31.40;;;;;;5036336;28;20041;-67
2024/01/18 12:08:32;;;;;;;2.00;0.90;;;23.90;31.50;;;;;;5036709;28;20055;-66
2024/01/18 12:10:57;;;;;;;1.40;0.80;;;23.60;31.70;;;;;;5032521;28;20033;-66
2024/01/18 12:13:23;;;;;;;2.58;0.40;;;23.30;32.30;;;;;;5035312;28;20413;-67
2024/01/18 12:15:52;;;;;;;0.70;0.70;;;22.40;31.80;;;;;;5033970;28;20033;-67
2024/01/18 12:18:18;;;;;;;2.72;0.75;;;19.90;33.50;;;;;;5035024;28;20091;-67
2024/01/18 12:20:44;;;;;;;1.17;0.77;;;17.30;36.50;;;;;;5036008;28;20045;-67
2024/01/18 12:23:15;;;;;;;1.38;0.82;;;15.20;39.10;;;;;;5036146;28;20030;-68
2024/01/18 12:25:41;;;;;;;3.70;0.60;;;13.80;41.40;;;;;;5028986;28;20072;-68
2024/01/18 12:28:07;;;;;;;1.92;0.68;;;12.90;42.90;;;;;;5033197;28;20052;-67
2024/01/18 12:30:33;;;;;;;0.60;0.30;;;12.30;44.10;;;;;;5032193;28;20056;-66
2024/01/18 12:32:59;;;;;;;0.47;0.32;;;11.70;45.20;;;;;;5033244;28;20049;-68
2024/01/18 12:35:25;;;;;;;1.48;0.63;;;11.80;46.40;;;;;;5028762;28;20392;-68
2024/01/18 12:37:51;;;;;;;2.35;0.95;;;12.80;45.80;;;;;;5033919;28;20037;-67
2024/01/18 12:40:17;;;;;;;0.57;0.50;;;14.80;43.60;;;;;;5030848;28;20499;-66
2024/01/18 12:42:42;;;;;;;0.57;0.40;;;16.60;40.50;;;;;;5032142;28;20778;-67
2024/01/18 12:45:08;;;;;;;0.73;0.73;;;18.00;38.90;;;;;;5026391;28;20030;-67
2024/01/18 12:47:36;;;;;;;0.85;0.70;;;18.90;37.10;;;;;;5030345;28;20045;-67
2024/01/18 12:50:04;;;;;;;0.88;0.60;;;19.20;36.80;;;;;;5031770;28;20488;-67